createdAt,value
2023-05-06T00:01:20.802Z,7.50
2023-05-06T00:03:48.654Z,6.60
2023-05-06T00:06:16.436Z,5.80
2023-05-06T00:08:44.062Z,5.20
2023-05-06T00:11:12.047Z,7.50
2023-05-06T00:13:39.701Z,7.10
2023-05-06T00:16:07.458Z,8.40
2023-05-06T00:18:35.171Z,7.20
2023-05-06T00:21:02.793Z,5.20
2023-05-06T00:23:30.462Z,6.60
2023-05-06T00:25:58.089Z,6.30
2023-05-06T00:28:25.738Z,7.60
2023-05-06T00:30:53.481Z,6.00
2023-05-06T00:33:21.106Z,5.80
2023-05-06T00:35:48.910Z,7.70
2023-05-06T00:38:17.062Z,5.50
2023-05-06T00:40:44.664Z,7.30
2023-05-06T00:43:12.286Z,9.70
2023-05-06T00:45:40.049Z,7.00
2023-05-06T00:48:07.802Z,6.70
2023-05-06T00:50:35.802Z,6.30
2023-05-06T00:53:04.178Z,9.00
2023-05-06T00:55:32.064Z,6.60
2023-05-06T00:57:59.647Z,7.30
2023-05-06T01:00:27.298Z,5.90
2023-05-06T01:02:54.993Z,6.70
2023-05-06T01:05:23.200Z,5.60
2023-05-06T01:08:34.876Z,6.10
2023-05-06T01:11:04.798Z,5.60
2023-05-06T01:13:43.212Z,6.20
2023-05-06T01:16:10.800Z,5.10
2023-05-06T01:18:38.444Z,10.90
2023-05-06T01:21:06.251Z,6.50
2023-05-06T01:23:58.036Z,5.00
2023-05-06T01:26:26.512Z,4.60
2023-05-06T01:28:54.409Z,8.30
2023-05-06T01:31:36.622Z,6.50
2023-05-06T01:34:15.540Z,7.80
2023-05-06T01:37:25.358Z,6.20
2023-05-06T01:39:54.349Z,8.20
2023-05-06T01:42:21.984Z,5.70
2023-05-06T01:44:49.594Z,8.70
2023-05-06T01:47:17.265Z,5.90
2023-05-06T01:49:44.883Z,7.40
2023-05-06T01:52:12.500Z,6.90
2023-05-06T01:54:40.349Z,6.50
2023-05-06T01:57:08.026Z,6.80
2023-05-06T01:59:35.777Z,6.10
2023-05-06T02:02:03.476Z,7.80
2023-05-06T02:04:32.148Z,7.30
2023-05-06T02:06:59.753Z,9.50
2023-05-06T02:09:27.330Z,7.30
2023-05-06T02:11:54.929Z,6.70
2023-05-06T02:14:22.515Z,8.20
2023-05-06T02:16:50.747Z,8.70
2023-05-06T02:19:18.470Z,8.00
2023-05-06T02:21:46.110Z,8.10
2023-05-06T02:24:13.717Z,9.20
2023-05-06T02:26:41.291Z,6.70
2023-05-06T02:29:08.885Z,6.20
2023-05-06T02:31:36.627Z,7.60
2023-05-06T02:34:04.756Z,7.10
2023-05-06T02:36:32.472Z,5.60
2023-05-06T02:39:00.161Z,7.30
2023-05-06T02:41:27.800Z,8.60
2023-05-06T02:43:55.492Z,7.90
2023-05-06T02:46:23.184Z,6.70
2023-05-06T02:48:50.965Z,7.50
2023-05-06T02:51:18.626Z,6.50
2023-05-06T02:53:46.220Z,7.60
2023-05-06T02:56:13.835Z,8.90
2023-05-06T02:58:41.408Z,7.10
2023-05-06T03:01:09.331Z,6.20
2023-05-06T03:03:37.019Z,6.70
2023-05-06T03:06:04.918Z,5.40
2023-05-06T03:08:32.758Z,5.80
2023-05-06T03:11:00.522Z,5.80
2023-05-06T03:13:28.200Z,7.70
2023-05-06T03:15:56.520Z,6.00
2023-05-06T03:18:24.137Z,5.40
2023-05-06T03:20:51.986Z,8.10
2023-05-06T03:23:19.599Z,5.90
2023-05-06T03:25:47.240Z,4.60
2023-05-06T03:28:14.901Z,6.80
2023-05-06T03:30:42.506Z,7.80
2023-05-06T03:33:10.211Z,6.20
2023-05-06T03:35:37.878Z,7.50
2023-05-06T03:38:05.964Z,6.20
2023-05-06T03:40:33.643Z,5.90
2023-05-06T03:43:01.285Z,5.90
2023-05-06T03:45:29.026Z,7.20
2023-05-06T03:47:58.446Z,6.10
2023-05-06T03:50:26.923Z,6.50
2023-05-06T03:52:54.559Z,10.20
2023-05-06T03:55:22.180Z,6.90
2023-05-06T03:57:49.792Z,4.90
2023-05-06T04:00:17.774Z,6.00
2023-05-06T04:02:45.662Z,5.40
2023-05-06T04:05:13.285Z,6.40
2023-05-06T04:07:40.876Z,7.60
2023-05-06T04:10:09.137Z,5.40
2023-05-06T04:12:36.764Z,5.70
2023-05-06T04:15:05.090Z,4.80
2023-05-06T04:17:32.874Z,4.90
2023-05-06T04:20:01.289Z,6.60
2023-05-06T04:22:28.924Z,5.30
2023-05-06T04:24:56.581Z,6.40
2023-05-06T04:27:26.578Z,4.00
2023-05-06T04:29:54.268Z,7.30
2023-05-06T04:32:25.171Z,5.30
2023-05-06T04:34:53.351Z,5.60
2023-05-06T04:37:21.308Z,6.20
2023-05-06T04:39:48.905Z,6.50
2023-05-06T04:42:16.843Z,6.00
2023-05-06T04:44:44.505Z,5.80
2023-05-06T04:47:12.181Z,6.60
2023-05-06T04:49:39.936Z,5.20
2023-05-06T04:52:07.565Z,5.30
2023-05-06T04:54:35.204Z,5.60
2023-05-06T04:57:03.473Z,5.40
2023-05-06T04:59:31.164Z,5.10
2023-05-06T05:01:58.775Z,5.70
2023-05-06T05:04:27.130Z,7.10
2023-05-06T05:06:54.797Z,6.90
2023-05-06T05:09:22.376Z,5.40
2023-05-06T05:11:50.024Z,6.30
2023-05-06T05:14:17.651Z,7.60
2023-05-06T05:16:45.376Z,6.90
2023-05-06T05:19:13.114Z,7.40
2023-05-06T05:21:40.978Z,5.40
2023-05-06T05:24:08.624Z,6.60
2023-05-06T05:26:36.252Z,5.70
2023-05-06T05:29:04.184Z,6.20
2023-05-06T05:31:31.878Z,5.40
2023-05-06T05:33:59.542Z,5.10
2023-05-06T05:36:27.700Z,5.20
2023-05-06T05:38:55.525Z,6.90
2023-05-06T05:41:23.255Z,7.00
2023-05-06T05:43:50.837Z,7.00
2023-05-06T05:46:18.485Z,7.50
2023-05-06T05:48:46.312Z,5.80
2023-05-06T05:51:14.358Z,9.70
2023-05-06T05:53:42.455Z,6.90
2023-05-06T05:56:10.295Z,6.90
2023-05-06T05:58:38.063Z,8.00
2023-05-06T06:01:06.230Z,8.40
2023-05-06T06:03:34.244Z,6.60
2023-05-06T06:06:02.086Z,5.90
2023-05-06T06:08:30.146Z,7.00
2023-05-06T06:10:58.004Z,8.90
2023-05-06T06:13:28.393Z,10.00
2023-05-06T06:15:56.891Z,7.00
2023-05-06T06:18:24.775Z,7.70
2023-05-06T06:20:53.252Z,6.80
2023-05-06T06:23:21.844Z,9.00
2023-05-06T06:25:49.443Z,7.50
2023-05-06T06:28:17.196Z,4.90
2023-05-06T06:30:44.836Z,6.90
2023-05-06T06:33:12.473Z,10.10
2023-05-06T06:35:40.339Z,8.70
2023-05-06T06:38:08.010Z,10.80
2023-05-06T06:40:36.072Z,9.10
2023-05-06T06:43:03.754Z,7.40
2023-05-06T06:45:31.407Z,11.80
2023-05-06T06:47:59.202Z,9.40
2023-05-06T06:50:27.041Z,10.20
2023-05-06T06:52:54.817Z,9.60
2023-05-06T06:55:22.681Z,9.30
2023-05-06T06:57:50.385Z,9.40
2023-05-06T07:00:18.143Z,9.80
2023-05-06T07:02:48.224Z,9.60
2023-05-06T07:05:16.021Z,10.60
2023-05-06T07:07:43.603Z,12.80
2023-05-06T07:10:11.346Z,12.40
2023-05-06T07:12:39.096Z,9.90
2023-05-06T07:15:07.415Z,10.00
2023-05-06T07:17:35.339Z,10.60
2023-05-06T07:20:03.258Z,16.00
2023-05-06T07:22:30.876Z,8.30
2023-05-06T07:24:58.517Z,8.60
2023-05-06T07:27:27.407Z,10.00
2023-05-06T07:29:55.079Z,9.50
2023-05-06T07:32:22.754Z,9.90
2023-05-06T07:34:50.460Z,9.80
2023-05-06T07:37:18.181Z,10.70
2023-05-06T07:39:45.820Z,8.80
2023-05-06T07:42:13.439Z,11.10
2023-05-06T07:44:41.075Z,13.70
2023-05-06T07:47:08.750Z,10.10
2023-05-06T07:49:36.687Z,8.70
2023-05-06T07:52:04.753Z,8.70
2023-05-06T07:54:32.421Z,9.10
2023-05-06T07:57:02.869Z,12.10
2023-05-06T07:59:30.466Z,9.40
2023-05-06T08:01:58.164Z,7.50
2023-05-06T08:04:26.217Z,9.50
2023-05-06T08:06:53.864Z,7.60
2023-05-06T08:09:23.205Z,7.70
2023-05-06T08:11:51.262Z,9.10
2023-05-06T08:14:18.871Z,9.60
2023-05-06T08:16:46.607Z,8.20
2023-05-06T08:19:14.361Z,10.10
2023-05-06T08:21:41.943Z,6.40
2023-05-06T08:24:11.023Z,16.90
2023-05-06T08:26:38.646Z,8.60
2023-05-06T08:29:07.244Z,10.70
2023-05-06T08:31:35.124Z,5.80
2023-05-06T08:34:02.758Z,10.60
2023-05-06T08:36:30.868Z,10.10
2023-05-06T08:38:58.475Z,10.30
2023-05-06T08:41:26.470Z,10.40
2023-05-06T08:43:54.489Z,8.40
2023-05-06T08:46:22.882Z,8.00
2023-05-06T08:48:50.604Z,11.30
2023-05-06T08:51:18.186Z,8.70
2023-05-06T08:53:48.274Z,11.90
2023-05-06T08:56:16.772Z,9.60
2023-05-06T08:58:45.946Z,12.70
2023-05-06T09:01:14.159Z,11.20
2023-05-06T09:03:41.928Z,14.10
2023-05-06T09:06:10.178Z,8.30
2023-05-06T09:08:37.790Z,9.50
2023-05-06T09:11:25.303Z,9.60
2023-05-06T09:14:07.233Z,8.70
2023-05-06T09:16:35.061Z,10.70
2023-05-06T09:19:02.728Z,12.00
2023-05-06T09:21:40.973Z,11.30
2023-05-06T09:24:09.258Z,12.10
2023-05-06T09:26:37.922Z,8.80
2023-05-06T09:29:05.991Z,12.20
2023-05-06T09:31:33.814Z,10.70
2023-05-06T09:34:01.454Z,9.30
2023-05-06T09:36:29.103Z,15.00
2023-05-06T09:38:57.141Z,11.50
2023-05-06T09:41:28.231Z,9.80
2023-05-06T09:43:56.328Z,21.60
2023-05-06T09:46:24.662Z,8.80
2023-05-06T09:48:53.218Z,11.10
2023-05-06T09:51:20.917Z,9.50
2023-05-06T09:53:48.826Z,9.20
2023-05-06T09:56:16.475Z,10.50
2023-05-06T09:58:44.125Z,10.30
2023-05-06T10:01:17.074Z,11.00
2023-05-06T10:03:47.389Z,11.40
2023-05-06T10:06:15.882Z,12.40
2023-05-06T10:08:46.135Z,12.80
2023-05-06T10:11:14.665Z,11.30
2023-05-06T10:13:42.704Z,11.10
2023-05-06T10:16:10.375Z,11.80
2023-05-06T10:18:38.917Z,8.60
2023-05-06T10:21:10.388Z,10.80
2023-05-06T10:23:44.482Z,11.40
2023-05-06T10:26:12.284Z,9.40
2023-05-06T10:28:41.354Z,11.90
2023-05-06T10:31:13.063Z,13.90
2023-05-06T10:33:42.441Z,16.40
2023-05-06T10:36:28.617Z,13.40
2023-05-06T10:38:56.924Z,19.20
2023-05-06T10:41:26.197Z,17.10
2023-05-06T10:43:57.445Z,13.90
2023-05-06T10:46:26.909Z,14.90
2023-05-06T10:49:08.478Z,15.00
2023-05-06T10:51:39.427Z,13.50
2023-05-06T10:54:19.003Z,10.80
2023-05-06T10:56:50.868Z,11.20
2023-05-06T10:59:23.863Z,13.00
2023-05-06T11:02:04.605Z,14.40
2023-05-06T11:04:32.615Z,20.10
2023-05-06T11:07:08.544Z,15.70
2023-05-06T11:10:00.542Z,15.90
2023-05-06T11:12:49.251Z,15.10
2023-05-06T11:15:36.365Z,14.00
2023-05-06T11:18:25.719Z,14.80
2023-05-06T11:21:02.868Z,15.90
2023-05-06T11:23:43.505Z,13.00
2023-05-06T11:26:11.469Z,15.50
2023-05-06T11:28:46.398Z,12.90
2023-05-06T11:31:14.611Z,12.70
2023-05-06T11:33:46.501Z,13.30
2023-05-06T11:36:17.887Z,14.40
2023-05-06T11:38:46.579Z,12.80
2023-05-06T11:41:15.003Z,13.90
2023-05-06T11:43:46.473Z,12.90
2023-05-06T11:46:14.068Z,13.00
2023-05-06T11:48:43.442Z,15.90
2023-05-06T11:51:11.074Z,15.40
2023-05-06T11:53:38.701Z,18.90
2023-05-06T11:56:06.768Z,19.10
2023-05-06T11:58:34.533Z,19.00
2023-05-06T12:01:03.746Z,20.90
2023-05-06T12:03:32.306Z,22.40
2023-05-06T12:06:00.182Z,25.40
2023-05-06T12:08:32.969Z,23.60
2023-05-06T12:11:05.429Z,22.70
2023-05-06T12:16:02.941Z,30.40
2023-05-06T12:18:30.662Z,35.80
2023-05-06T12:20:59.127Z,32.40
2023-05-06T12:23:26.820Z,32.40
2023-05-06T12:26:02.557Z,32.70
2023-05-06T12:28:31.083Z,30.70
2023-05-06T12:30:58.767Z,30.10
2023-05-06T12:33:26.395Z,29.20
2023-05-06T12:35:57.086Z,30.60
2023-05-06T12:38:25.182Z,22.30
2023-05-06T12:40:53.712Z,18.90
2023-05-06T12:43:29.005Z,23.30
2023-05-06T12:46:09.263Z,18.60
2023-05-06T12:48:37.027Z,20.50
2023-05-06T12:51:19.234Z,19.80
2023-05-06T12:53:46.921Z,16.30
2023-05-06T12:56:14.566Z,19.40
2023-05-06T12:58:42.198Z,25.20
2023-05-06T13:01:09.882Z,23.50
2023-05-06T13:03:38.949Z,33.10
2023-05-06T13:06:06.777Z,30.80
2023-05-06T13:08:34.497Z,19.40
2023-05-06T13:11:02.699Z,19.80
2023-05-06T13:13:31.019Z,23.10
2023-05-06T13:15:58.603Z,19.00
2023-05-06T13:18:26.270Z,22.80
2023-05-06T13:20:53.846Z,25.00
2023-05-06T13:23:21.700Z,26.90
2023-05-06T13:26:03.488Z,29.60
2023-05-06T13:28:33.685Z,26.80
2023-05-06T13:31:01.397Z,25.60
2023-05-06T13:33:29.174Z,21.80
2023-05-06T13:35:57.009Z,20.00
2023-05-06T13:38:24.772Z,17.40
2023-05-06T13:40:53.159Z,19.90
2023-05-06T13:43:21.332Z,22.70
2023-05-06T13:45:49.327Z,40.90
2023-05-06T13:48:17.965Z,50.20
2023-05-06T13:50:48.743Z,29.40
2023-05-06T13:53:16.564Z,23.90
2023-05-06T13:55:44.220Z,24.50
2023-05-06T13:58:11.848Z,21.70
2023-05-06T14:00:39.764Z,25.30
2023-05-06T14:03:07.837Z,25.80
2023-05-06T14:05:35.529Z,26.00
2023-05-06T14:08:03.289Z,30.40
2023-05-06T14:10:30.954Z,60.90
2023-05-06T14:12:58.595Z,24.30
2023-05-06T14:15:26.249Z,27.70
2023-05-06T14:17:54.284Z,28.30
2023-05-06T14:20:21.978Z,27.20
2023-05-06T14:22:49.770Z,23.90
2023-05-06T14:25:17.411Z,21.00
2023-05-06T14:27:45.678Z,21.10
2023-05-06T14:30:13.855Z,21.60
2023-05-06T14:32:41.539Z,23.70
2023-05-06T14:35:10.476Z,25.60
2023-05-06T14:37:38.290Z,28.10
2023-05-06T14:40:06.771Z,26.80
2023-05-06T14:42:35.853Z,26.10
2023-05-06T14:45:04.059Z,24.30
2023-05-06T14:47:31.739Z,24.30
2023-05-06T14:49:59.570Z,21.90
2023-05-06T14:52:27.256Z,23.20
2023-05-06T14:54:54.842Z,19.70
2023-05-06T14:57:22.660Z,23.10
2023-05-06T14:59:51.053Z,21.60
2023-05-06T15:02:18.910Z,23.20
2023-05-06T15:04:46.657Z,23.90
2023-05-06T15:07:14.362Z,26.80
2023-05-06T15:09:44.130Z,23.30
2023-05-06T15:12:11.768Z,27.60
2023-05-06T15:14:39.754Z,21.60
2023-05-06T15:17:07.858Z,23.10
2023-05-06T15:19:35.916Z,23.00
2023-05-06T15:22:03.585Z,20.50
2023-05-06T15:24:31.248Z,23.20
2023-05-06T15:26:58.854Z,24.10
2023-05-06T15:29:26.727Z,24.10
2023-05-06T15:31:54.535Z,27.40
2023-05-06T15:34:22.177Z,24.50
2023-05-06T15:36:51.890Z,27.00
2023-05-06T15:39:19.603Z,23.00
2023-05-06T15:41:47.758Z,22.90
2023-05-06T15:44:16.379Z,25.50
2023-05-06T15:46:44.221Z,27.30
2023-05-06T15:49:46.629Z,25.90
2023-05-06T15:52:01.308Z,23.50
2023-05-06T15:54:29.399Z,23.00
2023-05-06T15:56:58.356Z,22.30
2023-05-06T15:59:27.007Z,27.40
2023-05-06T16:04:25.430Z,27.00
2023-05-06T16:06:53.346Z,25.90
2023-05-06T16:09:21.008Z,25.50
2023-05-06T16:11:51.230Z,23.00
2023-05-06T16:14:18.862Z,27.40
2023-05-06T16:16:46.477Z,23.50
2023-05-06T16:19:14.263Z,26.70
2023-05-06T16:21:41.868Z,26.30
2023-05-06T16:24:09.472Z,25.30
2023-05-06T16:26:37.098Z,27.10
2023-05-06T16:29:04.864Z,27.40
2023-05-06T16:31:33.546Z,27.00
2023-05-06T16:34:01.331Z,24.00
2023-05-06T16:36:29.067Z,25.10
2023-05-06T16:38:56.759Z,25.00
2023-05-06T16:41:24.394Z,24.60
2023-05-06T16:43:51.995Z,23.90
2023-05-06T16:46:20.868Z,26.70
2023-05-06T16:48:51.604Z,26.60
2023-05-06T16:51:19.460Z,21.80
2023-05-06T16:53:47.121Z,21.90
2023-05-06T16:56:14.709Z,22.00
2023-05-06T16:58:42.932Z,24.80
2023-05-06T17:01:11.275Z,24.10
2023-05-06T17:03:40.320Z,27.50
2023-05-06T17:06:08.396Z,24.50
2023-05-06T17:08:37.275Z,24.70
2023-05-06T17:11:06.025Z,24.40
2023-05-06T17:13:34.466Z,23.60
2023-05-06T17:16:02.117Z,24.00
2023-05-06T17:18:29.792Z,21.20
2023-05-06T17:20:57.748Z,28.40
2023-05-06T17:23:25.453Z,23.00
2023-05-06T17:25:55.018Z,23.40
2023-05-06T17:28:22.686Z,23.60
2023-05-06T17:30:50.375Z,25.00
2023-05-06T17:33:18.040Z,22.70
2023-05-06T17:35:45.979Z,23.10
2023-05-06T17:38:13.672Z,24.50
2023-05-06T17:40:41.329Z,26.70
2023-05-06T17:43:08.956Z,23.20
2023-05-06T17:45:36.582Z,25.70
2023-05-06T17:48:04.637Z,27.30
2023-05-06T17:50:32.531Z,28.30
2023-05-06T17:53:00.225Z,29.60
2023-05-06T17:55:27.999Z,26.60
2023-05-06T17:57:55.664Z,24.20
2023-05-06T18:00:23.521Z,24.00
2023-05-06T18:02:51.239Z,24.20
2023-05-06T18:05:19.047Z,24.80
2023-05-06T18:07:46.654Z,25.10
2023-05-06T18:10:14.294Z,27.50
2023-05-06T18:12:42.117Z,23.00
2023-05-06T18:15:10.696Z,26.40
2023-05-06T18:17:38.733Z,27.90
2023-05-06T18:20:08.103Z,26.00
2023-05-06T18:22:35.868Z,25.40
2023-05-06T18:25:04.381Z,22.30
2023-05-06T18:27:32.535Z,23.00
2023-05-06T18:30:00.472Z,28.00
2023-05-06T18:32:28.303Z,28.10
2023-05-06T18:34:56.439Z,25.90
2023-05-06T18:37:24.084Z,22.00
2023-05-06T18:39:51.752Z,24.60
2023-05-06T18:42:19.354Z,20.80
2023-05-06T18:44:50.116Z,21.70
2023-05-06T18:47:18.322Z,25.10
2023-05-06T18:49:46.089Z,18.90
2023-05-06T18:52:15.061Z,26.60
2023-05-06T18:54:42.751Z,19.60
2023-05-06T18:57:10.623Z,21.10
2023-05-06T18:59:38.354Z,21.70
2023-05-06T19:02:06.133Z,23.20
2023-05-06T19:04:33.892Z,22.20
2023-05-06T19:07:01.719Z,22.60
2023-05-06T19:09:29.377Z,21.00
2023-05-06T19:11:57.030Z,24.70
2023-05-06T19:14:25.573Z,23.20
2023-05-06T19:16:53.399Z,25.30
2023-05-06T19:19:21.050Z,26.00
2023-05-06T19:21:48.668Z,20.70
2023-05-06T19:24:16.327Z,20.30
2023-05-06T19:26:44.830Z,22.80
2023-05-06T19:29:12.879Z,19.80
2023-05-06T19:31:40.556Z,24.80
2023-05-06T19:34:08.658Z,23.30
2023-05-06T19:36:36.294Z,20.90
2023-05-06T19:39:04.041Z,17.50
2023-05-06T19:41:31.631Z,21.80
2023-05-06T19:43:59.266Z,23.70
2023-05-06T19:46:26.926Z,17.90
2023-05-06T19:48:54.573Z,22.10
2023-05-06T19:51:22.164Z,23.40
2023-05-06T19:53:49.914Z,26.40
2023-05-06T19:56:17.756Z,24.00
2023-05-06T19:58:46.064Z,19.40
2023-05-06T20:01:13.871Z,19.70
2023-05-06T20:03:41.644Z,20.80
2023-05-06T20:06:09.369Z,20.10
2023-05-06T20:08:36.962Z,18.20
2023-05-06T20:11:05.689Z,15.50
2023-05-06T20:13:33.433Z,22.90
2023-05-06T20:16:02.056Z,20.70
2023-05-06T20:18:31.553Z,21.50
2023-05-06T20:20:59.218Z,19.90
2023-05-06T20:23:26.854Z,21.30
2023-05-06T20:25:54.540Z,21.80
2023-05-06T20:28:22.172Z,19.60
2023-05-06T20:30:51.204Z,20.50
2023-05-06T20:33:18.848Z,20.40
2023-05-06T20:35:48.142Z,21.30
2023-05-06T20:38:17.037Z,20.90
2023-05-06T20:40:44.688Z,19.30
2023-05-06T20:43:12.546Z,19.60
2023-05-06T20:45:40.159Z,18.60
2023-05-06T20:48:07.857Z,22.60
2023-05-06T20:50:35.565Z,18.60
2023-05-06T20:53:03.228Z,19.70
2023-05-06T20:55:30.920Z,16.10
2023-05-06T20:57:58.536Z,19.30
2023-05-06T21:00:26.190Z,18.20
2023-05-06T21:02:53.841Z,18.50
2023-05-06T21:05:21.633Z,17.40
2023-05-06T21:07:49.309Z,16.50
2023-05-06T21:10:17.069Z,15.10
2023-05-06T21:12:48.566Z,11.00
2023-05-06T21:15:16.504Z,11.50
2023-05-06T21:17:44.185Z,10.80
2023-05-06T21:20:12.530Z,9.60
2023-05-06T21:22:40.218Z,10.40
2023-05-06T21:25:08.954Z,12.50
2023-05-06T21:27:36.950Z,14.70
2023-05-06T21:30:05.204Z,18.00
2023-05-06T21:32:33.394Z,11.70
2023-05-06T21:35:02.153Z,13.90
2023-05-06T21:37:30.140Z,11.70
2023-05-06T21:39:57.821Z,15.30
2023-05-06T21:42:25.461Z,14.20
2023-05-06T21:44:53.057Z,12.80
2023-05-06T21:47:20.687Z,13.10
2023-05-06T21:49:48.371Z,19.00
2023-05-06T21:52:16.021Z,14.80
2023-05-06T21:54:46.002Z,12.80
2023-05-06T21:57:13.594Z,14.10
2023-05-06T21:59:41.216Z,13.80
2023-05-06T22:02:08.857Z,13.20
2023-05-06T22:04:36.495Z,17.70
2023-05-06T22:07:04.096Z,16.10
2023-05-06T22:09:31.734Z,14.50
2023-05-06T22:11:59.318Z,15.80
2023-05-06T22:14:37.320Z,13.50
2023-05-06T22:17:10.497Z,15.60
2023-05-06T22:19:38.569Z,13.30
2023-05-06T22:22:06.816Z,11.60
2023-05-06T22:24:34.551Z,10.70
2023-05-06T22:27:03.207Z,9.60
2023-05-06T22:29:30.999Z,15.00
2023-05-06T22:31:58.745Z,11.80
2023-05-06T22:34:26.565Z,10.90
2023-05-06T22:36:54.184Z,13.80
2023-05-06T22:39:21.886Z,16.70
2023-05-06T22:41:50.817Z,12.70
2023-05-06T22:44:18.394Z,14.90
2023-05-06T22:46:46.480Z,12.00
2023-05-06T22:49:16.028Z,13.70
2023-05-06T22:51:43.746Z,10.70
2023-05-06T22:54:11.351Z,15.30
2023-05-06T22:56:39.100Z,12.70
2023-05-06T22:59:06.701Z,13.40
2023-05-06T23:01:34.482Z,12.60
2023-05-06T23:04:02.242Z,10.20
2023-05-06T23:06:31.110Z,12.30
2023-05-06T23:08:58.902Z,11.30
2023-05-06T23:11:26.605Z,14.50
2023-05-06T23:13:54.266Z,11.80
2023-05-06T23:16:23.517Z,12.20
2023-05-06T23:18:51.168Z,12.00
2023-05-06T23:21:18.758Z,12.40
2023-05-06T23:23:46.336Z,12.40
2023-05-06T23:26:14.043Z,11.80
2023-05-06T23:28:41.683Z,12.20
2023-05-06T23:31:09.384Z,11.70
2023-05-06T23:33:37.206Z,11.40
2023-05-06T23:36:04.893Z,13.90
2023-05-06T23:38:32.529Z,12.90
2023-05-06T23:41:00.125Z,12.30
2023-05-06T23:43:27.979Z,10.90
2023-05-06T23:45:55.701Z,9.70
2023-05-06T23:48:23.286Z,11.30
2023-05-06T23:50:51.334Z,12.30
2023-05-06T23:53:18.973Z,8.70
2023-05-06T23:55:46.657Z,10.40
2023-05-06T23:58:14.384Z,10.30
